Portada
METAR-TAF:

METAR-TAF

Aeroports :

Kōriyama, Japó

latitud: 37-24N, longitud: 140-23E, altitud: 372 m

Observació

L'informe es va fer fa 42 minuts, a les 11:00 UTC
Vent 6 kt del Est/Sud-Est, variant entre Est i Sud/Sud-Est
Temperatura 16°C
Humitat 42%
Pressió 1009 hPa
Visibilitat 10 km o més
sense núvols per sota de 1500 mi sense presència de cumulonimbus.

METAR: RJSF 231100Z 12006KT 080V150 CAVOK 16/03 Q1009

Hora: 20:42 (11:42 UTC)

Pronòstic

L'informe es va fer fa 35 minuts, a les 11:07 UTC
Pronòstic vàlid del 23 a les 12 UTC al 24 a les 18 UTC
Vent 6 kt del Sud-Est
Visibilitat 10 km o més
Escasses núvols a una alçada de 4000 ft
Evolucionant progressivament
l' 23 a les 19 UTC al 23 a les 21 UTC
Vent 13 kt del Nord/Nord-Oest

TAF: RJSF 231107Z 2312/2418 13006KT 9999 FEW040 BECMG 2319/2321 34013KT

Observacions i pronòstics meteorològics de més de 4000 aeroports (METAR i TAF).

Les estacions disponibles són els punts grocs i vermells al mapa.

Posi el ratolí al punt desitjat per veure el nom de l'estació.

Feu clic per veure les observacions i els pronòstics meteorològics.

Per canviar el mapa: feu clic els botons verds amb una creu de color negre per apropar; al botó verd amb un guió per allunyar la imatge; o en les fletxes verdes per a mapes adjacents.


METAR-TAF: